Time;durP1;ratioP1;P1;durP2;ratioP2;P2;SDS_P1;SDS_P2;PMS_P1;PMS_P2;Temp;Humidity;BMP_temperature;BMP_pressure;BME280_temperature;BME280_humidity;BME280_pressure;Samples;Min_cycle;Max_cycle;Signal;HPM_P1;HPM_P2
2021/05/10 00:01:07;;;;;;;5.30;2.50;;;;;;;11.46;58.71;99691.47;232145;1177;115944;-68
2021/05/10 00:06:11;;;;;;;5.27;3.30;;;;;;;11.42;58.45;99690.33;232600;1177;118140;-68
2021/05/10 00:11:15;;;;;;;4.55;3.10;;;;;;;11.38;58.50;99678.52;232846;1177;116653;-67
2021/05/10 00:16:19;;;;;;;3.73;2.90;;;;;;;11.37;58.45;99676.08;231872;1177;116858;-67
2021/05/10 00:21:22;;;;;;;3.73;2.80;;;;;;;11.32;58.43;99678.66;232524;1178;115522;-66
2021/05/10 00:26:26;;;;;;;4.50;3.87;;;;;;;11.21;58.70;99669.69;231909;1177;116113;-67
2021/05/10 00:31:30;;;;;;;6.00;3.73;;;;;;;11.09;58.63;99675.07;232664;1177;115937;-68
2021/05/10 00:36:33;;;;;;;4.90;3.10;;;;;;;11.02;58.63;99673.59;233636;1177;115738;-68
2021/05/10 00:41:37;;;;;;;7.20;3.40;;;;;;;10.94;58.73;99677.47;232656;1179;115690;-68
2021/05/10 00:46:42;;;;;;;3.60;2.70;;;;;;;10.83;59.15;99669.51;232153;1177;116030;-66
2021/05/10 00:51:47;;;;;;;4.80;2.95;;;;;;;10.71;59.35;99675.68;233100;1177;116793;-66
2021/05/10 00:56:52;;;;;;;7.40;4.23;;;;;;;10.58;59.73;99665.31;233409;1177;115236;-68
2021/05/10 01:01:55;;;;;;;4.50;3.25;;;;;;;10.41;59.88;99667.88;234601;1177;115798;-67
2021/05/10 01:06:59;;;;;;;5.47;4.97;;;;;;;10.42;60.28;99664.17;234518;1177;114776;-67
2021/05/10 01:12:02;;;;;;;5.88;5.23;;;;;;;10.42;60.17;99666.84;234209;1173;115411;-66
2021/05/10 01:17:05;;;;;;;7.50;4.80;;;;;;;10.32;59.94;99661.31;234426;1179;115107;-67
2021/05/10 01:22:12;;;;;;;6.30;3.45;;;;;;;10.28;60.30;99667.34;233575;1177;116442;-67
2021/05/10 01:27:16;;;;;;;4.68;3.83;;;;;;;10.19;60.53;99661.56;233090;1172;114715;-67
2021/05/10 01:32:20;;;;;;;3.80;3.17;;;;;;;10.05;60.90;99655.66;232995;1177;115581;-67
2021/05/10 01:37:24;;;;;;;5.23;3.10;;;;;;;10.00;61.47;99660.05;233138;1177;115233;-66
2021/05/10 01:42:28;;;;;;;6.17;3.97;;;;;;;9.98;61.40;99649.63;232734;1177;115711;-66
2021/05/10 01:47:33;;;;;;;3.23;2.97;;;;;;;10.01;61.55;99654.50;233522;1177;115023;-66
2021/05/10 01:52:36;;;;;;;4.27;3.80;;;;;;;10.04;61.71;99653.22;232702;1177;115646;-67
2021/05/10 01:57:39;;;;;;;4.28;2.45;;;;;;;10.06;61.37;99659.94;232650;1177;115457;-66
2021/05/10 02:02:44;;;;;;;3.20;2.90;;;;;;;10.09;61.30;99648.79;232747;1177;115410;-69
2021/05/10 02:07:49;;;;;;;4.43;3.33;;;;;;;10.12;61.15;99655.51;232741;1177;115808;-69
2021/05/10 02:12:58;;;;;;;5.28;4.10;;;;;;;10.14;61.28;99659.56;231960;1178;115734;-68
2021/05/10 02:18:03;;;;;;;3.53;2.73;;;;;;;10.15;60.49;99665.70;233269;1177;115221;-68
2021/05/10 02:23:19;;;;;;;3.15;2.95;;;;;;;10.11;60.96;99662.69;232114;1178;115414;-68
2021/05/10 02:28:26;;;;;;;5.10;4.03;;;;;;;10.02;60.75;99657.97;232926;1173;115746;-69
2021/05/10 02:33:32;;;;;;;5.95;3.60;;;;;;;9.95;60.08;99670.59;233163;1177;116425;-69
2021/05/10 02:38:36;;;;;;;3.35;2.90;;;;;;;9.83;60.70;99665.25;232398;1177;115405;-67
2021/05/10 02:43:39;;;;;;;3.83;3.33;;;;;;;9.70;60.84;99666.30;233046;1177;115051;-67
2021/05/10 02:48:42;;;;;;;5.90;3.60;;;;;;;9.59;61.27;99675.08;233574;1177;115512;-67
2021/05/10 02:53:46;;;;;;;6.33;4.97;;;;;;;9.50;61.33;99668.45;233482;1179;115046;-66
2021/05/10 02:58:50;;;;;;;11.40;5.03;;;;;;;9.41;60.92;99675.98;232975;1177;115039;-68
2021/05/10 03:03:54;;;;;;;6.05;4.10;;;;;;;9.34;61.79;99677.12;233987;1177;115615;-68
2021/05/10 03:08:57;;;;;;;7.15;4.15;;;;;;;9.40;61.86;99676.20;233872;1177;115448;-69
2021/05/10 03:14:01;;;;;;;8.43;4.58;;;;;;;9.52;62.14;99674.36;234684;1176;114973;-70
2021/05/10 03:19:09;;;;;;;6.90;5.00;;;;;;;9.57;61.90;99679.00;234489;1177;115236;-69
2021/05/10 03:24:13;;;;;;;7.40;4.25;;;;;;;9.94;62.26;99683.09;234024;1177;114552;-68
2021/05/10 03:29:16;;;;;;;4.85;4.10;;;;;;;10.27;61.75;99681.70;233773;1177;115922;-68
2021/05/10 03:34:18;;;;;;;5.57;4.20;;;;;;;10.41;61.64;99683.87;232017;1177;115121;-68
2021/05/10 03:39:21;;;;;;;3.45;3.10;;;;;;;11.20;61.50;99677.93;232160;1177;116290;-67
2021/05/10 03:44:24;;;;;;;6.90;5.65;;;;;;;12.22;60.14;99683.05;233421;1177;115589;-68
2021/05/10 03:49:27;;;;;;;5.00;3.90;;;;;;;12.97;59.14;99680.47;232246;1170;115540;-70
2021/05/10 03:54:30;;;;;;;6.15;3.60;;;;;;;13.12;58.32;99690.54;232709;1174;114913;-70
2021/05/10 03:59:32;;;;;;;4.13;2.97;;;;;;;13.39;57.91;99666.46;232320;1177;115997;-69
2021/05/10 04:04:39;;;;;;;2.78;2.50;;;;;;;14.58;56.08;99683.87;232331;1177;114909;-68
2021/05/10 04:15:10;;;;;;;4.45;3.65;;;;;;;19.12;50.76;99678.44;232693;1177;115376;-69
2021/05/10 04:20:15;;;;;;;7.65;4.13;;;;;;;20.96;48.43;99679.48;232166;1174;115309;-70
2021/05/10 04:25:18;;;;;;;4.75;3.10;;;;;;;20.16;46.85;99675.41;232419;1173;115749;-72
2021/05/10 04:30:29;;;;;;;7.23;3.63;;;;;;;19.08;47.11;99666.61;232860;1177;115996;-70
2021/05/10 04:35:33;;;;;;;3.28;2.88;;;;;;;18.90;45.84;99662.02;232834;1177;115154;-71
2021/05/10 04:40:38;;;;;;;3.05;2.75;;;;;;;18.42;45.90;99666.63;232462;1177;115077;-71
2021/05/10 04:45:42;;;;;;;3.58;3.28;;;;;;;18.73;45.45;99665.20;232764;1177;116637;-71
2021/05/10 04:50:46;;;;;;;3.95;3.65;;;;;;;19.29;44.05;99674.41;233228;1177;114783;-70
2021/05/10 04:55:49;;;;;;;4.13;3.45;;;;;;;19.08;45.14;99673.91;233393;1178;114680;-71
2021/05/10 05:00:53;;;;;;;3.67;2.93;;;;;;;18.31;45.30;99684.86;234185;1179;114979;-70
2021/05/10 05:05:57;;;;;;;4.20;3.40;;;;;;;18.47;44.82;99685.47;234053;1177;114731;-67
2021/05/10 05:11:01;;;;;;;3.33;3.03;;;;;;;22.46;41.69;99691.52;233963;1177;115627;-67
2021/05/10 05:16:05;;;;;;;4.80;2.70;;;;;;;26.76;37.75;99688.91;234573;1177;115117;-69
2021/05/10 05:21:09;;;;;;;5.30;4.00;;;;;;;29.96;34.89;99694.16;234551;1177;115607;-70
2021/05/10 05:26:13;;;;;;;2.88;2.68;;;;;;;32.33;31.89;99691.09;234596;1177;114980;-68
2021/05/10 05:31:16;;;;;;;3.43;3.00;;;;;;;34.07;29.66;99688.38;233987;1177;115816;-71
2021/05/10 05:36:20;;;;;;;2.57;2.37;;;;;;;35.33;27.68;99696.15;233561;1177;115367;-71
2021/05/10 05:41:23;;;;;;;2.40;2.20;;;;;;;36.22;26.08;99685.31;232593;1177;117185;-69
2021/05/10 05:46:30;;;;;;;3.60;3.10;;;;;;;36.39;24.79;99689.94;233353;1177;115678;-71
2021/05/10 05:51:33;;;;;;;4.20;2.10;;;;;;;36.59;24.45;99686.59;232976;1177;116289;-70
2021/05/10 05:56:36;;;;;;;2.57;1.97;;;;;;;36.83;23.97;99693.91;232450;1177;116322;-70
2021/05/10 06:01:39;;;;;;;6.08;2.03;;;;;;;34.97;24.60;99687.94;232931;1177;116312;-70
2021/05/10 06:06:42;;;;;;;2.45;2.25;;;;;;;33.71;24.23;99681.97;232094;1178;115971;-68
2021/05/10 06:11:45;;;;;;;3.50;2.20;;;;;;;32.14;25.13;99671.97;232492;1178;117664;-69
2021/05/10 06:16:48;;;;;;;3.13;1.37;;;;;;;31.36;25.30;99668.40;232419;1177;117140;-68
2021/05/10 06:21:52;;;;;;;2.53;2.00;;;;;;;30.29;26.21;99666.84;232690;1178;115198;-77
2021/05/10 06:26:55;;;;;;;2.85;1.60;;;;;;;28.70;26.30;99667.22;232364;1177;115829;-73
2021/05/10 06:31:59;;;;;;;3.70;2.63;;;;;;;27.24;27.72;99654.39;232863;1177;115130;-69
2021/05/10 06:37:02;;;;;;;5.85;3.00;;;;;;;26.17;29.02;99657.34;232315;1177;114937;-68
2021/05/10 06:42:05;;;;;;;3.00;2.25;;;;;;;25.31;29.63;99660.16;232525;1177;115170;-69
2021/05/10 06:47:09;;;;;;;2.63;1.93;;;;;;;24.72;30.77;99657.53;233385;1179;114758;-69
2021/05/10 06:52:12;;;;;;;2.93;2.73;;;;;;;24.55;31.72;99649.44;233135;1177;115878;-68
2021/05/10 06:57:14;;;;;;;6.03;2.30;;;;;;;25.08;32.63;99659.69;232488;1177;115310;-69
2021/05/10 07:02:19;;;;;;;5.50;2.05;;;;;;;26.55;31.04;99647.24;234554;1177;115519;-70
2021/05/10 07:07:23;;;;;;;6.80;1.90;;;;;;;27.59;30.38;99629.97;234081;1177;115610;-69
2021/05/10 07:12:28;;;;;;;;;;;;;;;28.40;30.02;99631.27;233308;1177;115165;-71
2021/05/10 07:17:31;;;;;;;3.65;1.80;;;;;;;28.88;29.54;99629.22;235280;1175;102366;-71
2021/05/10 07:22:34;;;;;;;3.67;1.57;;;;;;;28.90;29.59;99626.91;234542;1177;115940;-71
2021/05/10 07:27:37;;;;;;;1.53;1.50;;;;;;;28.73;29.10;99622.61;234442;1177;114964;-71
2021/05/10 07:32:40;;;;;;;2.07;1.53;;;;;;;28.76;29.76;99628.15;234520;1177;117751;-70
2021/05/10 07:37:42;;;;;;;2.20;2.00;;;;;;;28.89;28.53;99631.60;232667;1173;115120;-70
2021/05/10 07:42:45;;;;;;;3.30;1.10;;;;;;;28.95;28.36;99630.17;233382;1179;115970;-70
2021/05/10 07:47:52;;;;;;;2.58;1.13;;;;;;;28.59;28.21;99617.59;232668;1177;115606;-69
2021/05/10 07:52:55;;;;;;;1.80;1.00;;;;;;;28.48;28.09;99627.52;233390;1177;115595;-68
2021/05/10 07:57:57;;;;;;;2.17;1.20;;;;;;;28.32;27.56;99604.83;233076;1177;116201;-69
2021/05/10 08:08:13;;;;;;;1.30;1.23;;;;;;;28.35;27.91;99601.38;231837;1177;115974;-72
2021/05/10 08:13:16;;;;;;;2.50;1.68;;;;;;;28.23;27.53;99605.02;232682;1174;115273;-69
2021/05/10 08:18:19;;;;;;;1.40;1.30;;;;;;;28.05;27.95;99592.81;231995;1171;116462;-68
2021/05/10 08:23:21;;;;;;;2.25;1.50;;;;;;;27.72;28.26;99599.44;232024;1177;115278;-72
2021/05/10 08:28:24;;;;;;;1.53;1.33;;;;;;;27.47;27.91;99595.23;231816;1177;115839;-71
2021/05/10 08:33:29;;;;;;;1.00;1.00;;;;;;;27.51;28.02;99601.59;232777;1177;115317;-72
2021/05/10 08:38:33;;;;;;;1.40;0.87;;;;;;;27.42;28.47;99592.74;232602;1177;115445;-72
2021/05/10 08:43:37;;;;;;;1.20;1.10;;;;;;;27.32;28.76;99585.03;232546;1177;117310;-69
2021/05/10 08:48:40;;;;;;;1.75;1.10;;;;;;;27.44;28.76;99579.50;232018;1177;116465;-70
2021/05/10 08:53:44;;;;;;;1.50;0.87;;;;;;;27.46;29.05;99579.95;233212;1177;115595;-71
2021/05/10 08:58:48;;;;;;;1.75;1.20;;;;;;;27.56;28.40;99565.72;232655;1177;115395;-71
2021/05/10 09:03:51;;;;;;;1.13;1.13;;;;;;;27.63;28.43;99570.63;232312;1177;116118;-69
2021/05/10 09:08:54;;;;;;;2.57;1.30;;;;;;;27.72;28.76;99569.31;233879;1177;117704;-72
2021/05/10 09:13:59;;;;;;;4.40;1.50;;;;;;;27.90;28.97;99571.69;233162;1177;116187;-70
2021/05/10 09:19:02;;;;;;;1.65;1.55;;;;;;;27.87;29.00;99564.97;233779;1177;116561;-71
2021/05/10 09:24:23;;;;;;;3.70;1.57;;;;;;;27.83;29.25;99570.35;234634;1177;117097;-70
2021/05/10 09:29:43;;;;;;;1.77;1.17;;;;;;;27.81;29.04;99560.92;234374;1177;115093;-70
2021/05/10 09:35:09;;;;;;;1.40;1.30;;;;;;;28.03;29.16;99552.06;234421;1177;115485;-70
2021/05/10 09:40:13;;;;;;;0.80;0.80;;;;;;;28.06;29.59;99559.58;234328;1177;115931;-71
2021/05/10 09:45:51;;;;;;;5.25;1.65;;;;;;;28.13;29.50;99567.94;234220;1177;115129;-71
2021/05/10 09:50:58;;;;;;;1.20;1.17;;;;;;;28.14;29.00;99552.30;233479;1177;115838;-70
2021/05/10 09:56:03;;;;;;;1.00;1.00;;;;;;;28.08;29.03;99559.22;232685;1177;117709;-72
2021/05/10 10:01:07;;;;;;;1.40;1.20;;;;;;;28.17;28.98;99551.59;233647;1180;115810;-71
2021/05/10 10:06:16;;;;;;;0.77;0.77;;;;;;;28.27;28.97;99540.11;232348;1178;116323;-69
2021/05/10 10:11:22;;;;;;;1.50;1.40;;;;;;;28.18;28.65;99550.44;231980;1178;115961;-71
2021/05/10 10:16:30;;;;;;;0.60;0.60;;;;;;;27.89;29.01;99540.75;233100;1177;115530;-72
2021/05/10 10:21:36;;;;;;;7.00;2.00;;;;;;;28.00;29.76;99539.07;232643;1177;116066;-73
2021/05/10 10:26:40;;;;;;;1.03;0.97;;;;;;;28.21;29.61;99536.05;232368;1177;116117;-72
2021/05/10 10:31:48;;;;;;;3.35;1.30;;;;;;;28.31;29.26;99538.25;232253;1179;117068;-72
2021/05/10 10:36:59;;;;;;;1.03;0.77;;;;;;;28.23;29.34;99536.49;231988;1177;115445;-71
2021/05/10 10:42:11;;;;;;;6.55;1.40;;;;;;;27.96;30.17;99538.19;231911;1171;117013;-72
2021/05/10 10:47:36;;;;;;;3.25;1.70;;;;;;;27.51;29.04;99538.63;232972;1177;116267;-71
2021/05/10 10:53:03;;;;;;;1.10;1.00;;;;;;;27.22;30.05;99539.00;232489;1170;115687;-71
2021/05/10 10:58:15;;;;;;;1.78;1.38;;;;;;;27.44;29.85;99536.50;232845;1177;116062;-71
2021/05/10 11:03:31;;;;;;;2.47;0.83;;;;;;;27.75;29.63;99529.47;232055;1177;116454;-71
2021/05/10 11:08:43;;;;;;;10.45;1.28;;;;;;;27.86;29.03;99533.24;233872;1177;116585;-73
2021/05/10 11:13:45;;;;;;;1.95;0.80;;;;;;;27.89;29.43;99529.00;232227;1179;116429;-73
2021/05/10 11:18:55;;;;;;;3.95;1.05;;;;;;;27.86;28.45;99535.98;233660;1177;116128;-71
2021/05/10 11:24:00;;;;;;;1.03;0.97;;;;;;;27.88;29.03;99533.69;234617;1178;116998;-72
2021/05/10 11:29:09;;;;;;;3.15;0.95;;;;;;;27.94;28.58;99517.78;232324;1174;116213;-71
2021/05/10 11:34:15;;;;;;;2.83;1.20;;;;;;;27.93;28.48;99516.19;232069;1177;116327;-73
2021/05/10 11:39:30;;;;;;;3.60;0.93;;;;;;;27.95;28.82;99522.11;234444;1178;116723;-70
2021/05/10 11:44:38;;;;;;;0.87;0.87;;;;;;;27.99;29.31;99509.29;234004;1178;116551;-69
2021/05/10 11:49:51;;;;;;;3.57;1.07;;;;;;;28.05;29.68;99518.83;232486;1178;116204;-72
2021/05/10 11:54:59;;;;;;;1.20;1.10;;;;;;;28.12;29.05;99519.00;233868;1179;116091;-71
2021/05/10 12:00:13;;;;;;;2.07;1.23;;;;;;;27.97;29.21;99500.63;234123;1177;116769;-69
2021/05/10 12:05:17;;;;;;;1.30;1.20;;;;;;;27.98;29.23;99510.44;233472;1177;115716;-69
2021/05/10 12:10:21;;;;;;;1.43;1.33;;;;;;;27.99;28.44;99509.29;233322;1177;116183;-71
2021/05/10 12:15:28;;;;;;;3.03;1.38;;;;;;;27.95;29.32;99511.94;233554;1177;115788;-70
2021/05/10 12:20:34;;;;;;;1.90;1.23;;;;;;;27.99;28.76;99490.91;232916;1177;115755;-68
2021/05/10 12:25:38;;;;;;;1.63;0.70;;;;;;;27.95;29.81;99483.75;232665;1177;116065;-68
2021/05/10 12:30:45;;;;;;;1.37;1.00;;;;;;;28.10;29.34;99491.16;232877;1177;115710;-72
2021/05/10 12:36:03;;;;;;;4.33;1.70;;;;;;;27.98;28.92;99492.05;232430;1171;116440;-69
2021/05/10 12:41:18;;;;;;;0.93;0.93;;;;;;;27.79;28.99;99484.59;232557;1177;116027;-68
2021/05/10 12:46:23;;;;;;;2.63;1.15;;;;;;;27.70;28.49;99483.17;232791;1177;116044;-68
2021/05/10 12:51:29;;;;;;;1.50;1.40;;;;;;;27.73;28.75;99476.99;233090;1177;115778;-76
2021/05/10 12:56:43;;;;;;;1.07;1.07;;;;;;;27.79;29.27;99479.11;233069;1177;116413;-73
2021/05/10 13:05:41;;;;;;;0.70;0.70;;;;;;;27.56;29.04;99485.52;238593;1167;103943;-73
2021/05/10 13:10:55;;;;;;;2.15;0.90;;;;;;;27.49;29.60;99478.75;233747;1173;115560;-73
2021/05/10 13:16:03;;;;;;;1.33;1.23;;;;;;;27.54;29.23;99476.87;234188;1174;114965;-73
2021/05/10 13:36:44;;;;;;;3.00;1.43;;;;;;;27.76;29.32;99459.85;233054;1176;117013;-71
2021/05/10 13:42:15;;;;;;;1.55;1.45;;;;;;;27.79;29.31;99462.67;232605;1174;115084;-72
2021/05/10 13:47:18;;;;;;;1.03;1.03;;;;;;;27.77;29.37;99462.23;232577;1174;204157;-71
2021/05/10 13:52:22;;;;;;;1.70;1.60;;;;;;;27.81;29.28;99463.12;232676;1174;115851;-71
2021/05/10 13:57:26;;;;;;;1.50;1.40;;;;;;;27.61;29.57;99469.66;232716;1174;115689;-71
2021/05/10 14:02:29;;;;;;;6.45;1.48;;;;;;;27.31;28.76;99468.48;233693;1174;116818;-73
2021/05/10 14:07:33;;;;;;;1.40;1.30;;;;;;;27.18;29.54;99464.26;232573;1174;116912;-68
2021/05/10 14:12:37;;;;;;;1.50;1.40;;;;;;;27.05;29.25;99472.53;232644;1174;116357;-69
2021/05/10 14:17:42;;;;;;;4.73;1.33;;;;;;;26.98;29.54;99453.19;232726;1177;116149;-71
2021/05/10 14:22:47;;;;;;;4.33;1.57;;;;;;;26.92;29.72;99454.55;233467;1174;115963;-70
2021/05/10 14:27:54;;;;;;;1.30;1.25;;;;;;;26.85;29.78;99443.44;232398;1171;116586;-69
2021/05/10 14:32:57;;;;;;;1.83;1.08;;;;;;;26.62;29.90;99434.20;232571;1174;116093;-68
2021/05/10 14:38:01;;;;;;;2.53;1.80;;;;;;;26.36;30.39;99440.11;233657;1174;115901;-69
2021/05/10 14:43:03;;;;;;;4.00;1.78;;;;;;;26.08;30.78;99434.58;232522;1174;115872;-68
2021/05/10 14:48:07;;;;;;;3.60;2.00;;;;;;;25.64;31.20;99439.89;232548;1174;116008;-69
2021/05/10 14:53:09;;;;;;;1.65;1.40;;;;;;;25.39;31.42;99447.22;233324;1173;117325;-69
2021/05/10 14:58:12;;;;;;;1.40;1.40;;;;;;;25.16;32.50;99438.68;232833;1174;115474;-68
2021/05/10 15:03:15;;;;;;;1.28;1.18;;;;;;;25.00;32.39;99437.75;232873;1174;115144;-68
2021/05/10 15:08:18;;;;;;;5.73;2.08;;;;;;;24.92;32.43;99438.61;232932;1174;115466;-69
2021/05/10 15:13:20;;;;;;;4.30;1.37;;;;;;;24.97;33.03;99438.42;233511;1174;115781;-68
2021/05/10 15:18:24;;;;;;;3.90;1.75;;;;;;;25.01;32.82;99438.55;233922;1174;114608;-68
2021/05/10 15:23:26;;;;;;;12.25;2.13;;;;;;;25.13;32.90;99428.45;234891;1174;115975;-68
2021/05/10 15:28:29;;;;;;;3.45;1.78;;;;;;;25.31;32.58;99431.78;233040;1174;115375;-67
2021/05/10 15:33:32;;;;;;;1.85;1.43;;;;;;;25.40;32.29;99439.83;232811;1174;115024;-68
2021/05/10 15:38:35;;;;;;;0.95;0.95;;;;;;;25.51;32.58;99446.45;235077;1170;116278;-66
2021/05/10 15:43:39;;;;;;;2.40;1.45;;;;;;;25.68;31.94;99432.58;234985;1174;116116;-70
2021/05/10 15:48:42;;;;;;;1.60;1.50;;;;;;;25.82;32.24;99446.69;234988;1174;115410;-70
2021/05/10 15:53:44;;;;;;;2.43;1.45;;;;;;;25.94;31.71;99450.55;233805;1174;116116;-71
2021/05/10 15:58:48;;;;;;;3.18;1.08;;;;;;;25.98;31.92;99449.53;233175;1174;114685;-71
2021/05/10 16:03:52;;;;;;;2.70;1.53;;;;;;;25.99;31.78;99458.52;233465;1174;115247;-70
2021/05/10 16:08:56;;;;;;;4.10;1.50;;;;;;;25.99;31.62;99450.33;233576;1174;115791;-69
2021/05/10 16:14:00;;;;;;;4.20;2.40;;;;;;;25.88;31.94;99452.72;232943;1174;115053;-66
2021/05/10 16:19:06;;;;;;;2.30;1.50;;;;;;;25.75;32.40;99459.31;232511;1174;115261;-66
2021/05/10 16:24:10;;;;;;;2.18;1.83;;;;;;;25.54;32.32;99469.53;233081;1174;115555;-66
2021/05/10 16:29:12;;;;;;;1.60;1.50;;;;;;;25.42;32.95;99470.31;232523;1174;115796;-65
2021/05/10 16:34:16;;;;;;;3.27;1.73;;;;;;;25.16;32.94;99467.89;232504;1174;114684;-67
2021/05/10 16:39:20;;;;;;;1.93;1.63;;;;;;;24.98;33.01;99467.29;232758;1174;114434;-67
2021/05/10 16:44:26;;;;;;;3.13;2.30;;;;;;;24.80;33.84;99484.91;232511;1174;116197;-67
2021/05/10 16:49:29;;;;;;;2.58;1.58;;;;;;;24.53;33.83;99477.30;232434;1174;115046;-67
2021/05/10 16:54:32;;;;;;;2.73;1.78;;;;;;;24.27;34.32;99477.50;234280;1174;116573;-68
2021/05/10 16:59:35;;;;;;;3.70;1.60;;;;;;;24.01;34.34;99480.38;232696;1174;115814;-68
2021/05/10 17:04:38;;;;;;;3.25;1.65;;;;;;;23.90;34.27;99484.59;232482;1174;115807;-67
2021/05/10 17:09:41;;;;;;;8.27;2.13;;;;;;;23.79;34.65;99490.44;233534;1174;116142;-66
2021/05/10 17:14:44;;;;;;;2.20;1.40;;;;;;;23.66;34.76;99487.92;233143;1174;115516;-67
2021/05/10 17:19:46;;;;;;;4.87;1.50;;;;;;;23.54;35.07;99485.12;233352;1174;115420;-68
2021/05/10 17:24:50;;;;;;;4.70;1.93;;;;;;;23.39;35.45;99491.84;233836;1172;116091;-68
2021/05/10 17:29:53;;;;;;;2.70;2.20;;;;;;;23.23;35.49;99493.52;233464;1175;116440;-66
2021/05/10 17:34:56;;;;;;;1.90;1.70;;;;;;;23.10;35.52;99487.14;234328;1176;116422;-66
2021/05/10 17:40:01;;;;;;;2.37;2.17;;;;;;;22.96;35.99;99497.38;235037;1174;116047;-67
2021/05/10 17:45:04;;;;;;;2.35;1.90;;;;;;;22.84;36.04;99496.14;235173;1174;114760;-67
2021/05/10 17:50:08;;;;;;;3.00;2.10;;;;;;;22.70;36.53;99497.39;235178;1174;115036;-67
2021/05/10 17:55:12;;;;;;;4.27;1.77;;;;;;;22.47;36.83;99492.13;234857;1174;114921;-67
2021/05/10 18:00:16;;;;;;;5.03;2.13;;;;;;;22.22;37.08;99495.63;234226;1174;115191;-66
2021/05/10 18:05:25;;;;;;;3.30;2.30;;;;;;;22.02;37.46;99502.44;233498;1174;116084;-67
2021/05/10 18:10:30;;;;;;;3.23;1.80;;;;;;;21.82;37.84;99498.38;232801;1174;115916;-69
2021/05/10 18:15:39;;;;;;;5.77;2.30;;;;;;;21.60;37.68;99501.17;232954;1174;114807;-68
2021/05/10 18:20:43;;;;;;;2.35;2.25;;;;;;;21.39;38.32;99509.06;233355;1174;115504;-68
2021/05/10 18:25:47;;;;;;;2.97;2.67;;;;;;;21.18;38.48;99511.45;232785;1174;205168;-66
2021/05/10 18:30:50;;;;;;;1.80;1.70;;;;;;;20.99;39.07;99513.58;232587;1174;115807;-67
2021/05/10 18:35:56;;;;;;;3.55;2.30;;;;;;;20.72;39.39;99519.92;233425;1174;115010;-67
2021/05/10 18:41:00;;;;;;;3.23;1.85;;;;;;;20.49;39.80;99521.78;232693;1174;115257;-66
2021/05/10 18:46:03;;;;;;;4.50;1.85;;;;;;;20.30;39.77;99528.42;233064;1174;115185;-66
2021/05/10 18:51:08;;;;;;;12.07;2.57;;;;;;;20.12;40.10;99538.28;232880;1174;115821;-67
2021/05/10 18:56:11;;;;;;;5.85;2.20;;;;;;;19.95;40.68;99538.08;232738;1174;115308;-67
2021/05/10 19:01:14;;;;;;;2.40;2.20;;;;;;;19.75;41.32;99540.09;232400;1174;115839;-66
2021/05/10 19:06:17;;;;;;;5.33;2.48;;;;;;;19.53;41.92;99548.09;233079;1174;115622;-66
2021/05/10 19:11:21;;;;;;;2.98;2.40;;;;;;;19.32;42.08;99547.59;233370;1174;115050;-65
2021/05/10 19:16:25;;;;;;;3.98;3.03;;;;;;;19.21;42.83;99548.08;232776;1174;115685;-65
2021/05/10 19:21:30;;;;;;;4.85;2.70;;;;;;;19.06;42.86;99546.42;233058;1174;115663;-68
2021/05/10 19:26:35;;;;;;;6.80;3.68;;;;;;;18.91;43.32;99544.78;232734;1174;116459;-68
2021/05/10 19:31:39;;;;;;;5.90;3.53;;;;;;;18.79;43.71;99550.63;233947;1176;116572;-66
2021/05/10 19:36:42;;;;;;;10.48;3.55;;;;;;;18.69;44.20;99548.06;234812;1176;115929;-65
2021/05/10 19:41:45;;;;;;;5.45;2.40;;;;;;;18.58;44.27;99548.48;233902;1175;116112;-65
2021/05/10 19:46:58;;;;;;;7.75;3.80;;;;;;;18.48;44.27;99546.73;235017;1174;116532;-65
2021/05/10 20:02:14;;;;;;;2.85;2.65;;;;;;;18.25;44.89;99545.69;235128;1174;115175;-65
2021/05/10 20:07:18;;;;;;;4.13;3.13;;;;;;;18.15;45.14;99543.11;233726;1174;116452;-65
2021/05/10 20:12:22;;;;;;;6.35;2.73;;;;;;;18.03;45.58;99546.24;232643;1174;116685;-64
2021/05/10 20:17:30;;;;;;;6.43;3.38;;;;;;;17.94;45.55;99549.85;233468;1174;114842;-67
2021/05/10 20:22:34;;;;;;;5.33;2.98;;;;;;;17.87;45.56;99549.39;232732;1174;115941;-68
2021/05/10 20:27:38;;;;;;;4.13;3.37;;;;;;;17.77;45.60;99545.70;233213;1174;115535;-65
2021/05/10 20:32:42;;;;;;;2.27;2.17;;;;;;;17.70;45.46;99556.05;234126;1174;114915;-65
2021/05/10 20:37:46;;;;;;;4.30;2.70;;;;;;;17.63;45.61;99550.16;232985;1174;114843;-65
2021/05/10 20:42:49;;;;;;;5.93;3.95;;;;;;;17.56;45.76;99559.66;232850;1174;116052;-68
2021/05/10 20:47:52;;;;;;;4.33;2.87;;;;;;;17.50;45.79;99559.70;232643;1173;115551;-68
2021/05/10 20:52:56;;;;;;;4.95;3.33;;;;;;;17.44;45.43;99560.83;232458;1174;114879;-69
2021/05/10 20:58:01;;;;;;;7.40;2.83;;;;;;;17.36;46.09;99566.86;232519;1174;115155;-67
2021/05/10 21:03:03;;;;;;;4.20;3.35;;;;;;;17.26;46.16;99571.52;232757;1174;115593;-66
2021/05/10 21:08:05;;;;;;;7.95;3.65;;;;;;;17.20;46.16;99573.45;232610;1174;114899;-66
2021/05/10 21:13:09;;;;;;;3.80;3.50;;;;;;;17.14;46.66;99580.77;232577;1174;115407;-67
2021/05/10 21:18:12;;;;;;;8.50;3.38;;;;;;;17.05;46.21;99590.55;232706;1174;115466;-66
2021/05/10 21:23:16;;;;;;;10.17;3.80;;;;;;;16.98;46.31;99581.98;232881;1174;115421;-66
2021/05/10 21:28:19;;;;;;;6.37;3.27;;;;;;;16.81;46.56;99592.34;232585;1174;115589;-67
2021/05/10 21:33:25;;;;;;;3.60;2.75;;;;;;;16.71;46.59;99597.77;233814;1174;115600;-68
2021/05/10 21:38:28;;;;;;;17.40;3.53;;;;;;;16.66;46.75;99595.11;234265;1174;115506;-65
2021/05/10 21:43:31;;;;;;;7.38;3.60;;;;;;;16.47;47.46;99592.22;233049;1174;116059;-65
2021/05/10 21:48:34;;;;;;;3.70;3.27;;;;;;;16.32;47.55;99590.40;233551;1174;116503;-68
2021/05/10 21:53:40;;;;;;;7.53;3.40;;;;;;;16.17;47.90;99601.23;232890;1174;116240;-67
2021/05/10 21:58:43;;;;;;;3.27;2.97;;;;;;;16.04;48.26;99599.11;235216;1174;117597;-64
2021/05/10 22:03:47;;;;;;;7.50;3.20;;;;;;;15.91;48.61;99596.98;235194;1167;116323;-65
2021/05/10 22:08:50;;;;;;;6.60;4.40;;;;;;;15.82;48.74;99594.88;234593;1174;116956;-67
2021/05/10 22:13:53;;;;;;;4.55;3.50;;;;;;;15.76;48.36;99592.47;233654;1174;116338;-67
2021/05/10 22:18:58;;;;;;;4.15;3.75;;;;;;;15.62;49.31;99596.77;233538;1174;116031;-67
2021/05/10 22:24:03;;;;;;;4.00;3.60;;;;;;;15.37;50.27;99594.89;232682;1174;117352;-68
2021/05/10 22:29:07;;;;;;;5.03;3.78;;;;;;;15.15;50.31;99582.55;232407;1176;115893;-67
2021/05/10 22:34:10;;;;;;;6.03;3.53;;;;;;;15.06;50.45;99580.66;232332;1174;116590;-67
2021/05/10 22:39:28;;;;;;;8.03;3.65;;;;;;;14.99;51.01;99574.73;232547;1176;116487;-66
2021/05/10 22:44:54;;;;;;;6.07;3.63;;;;;;;14.86;51.63;99575.28;233327;1174;115589;-68
2021/05/10 23:06:48;;;;;;;10.05;3.90;;;;;;;14.55;52.52;99561.81;232662;1175;116934;-68
2021/05/10 23:17:14;;;;;;;12.53;5.23;;;;;;;14.48;52.55;99567.42;232775;1174;116339;-67
2021/05/10 23:22:19;;;;;;;7.03;4.83;;;;;;;14.39;52.85;99568.96;233246;1174;116613;-66
2021/05/10 23:27:21;;;;;;;14.50;5.07;;;;;;;14.30;52.77;99570.56;232964;1174;116632;-68
2021/05/10 23:32:25;;;;;;;6.65;3.95;;;;;;;14.30;52.84;99567.88;232523;1174;115144;-68
2021/05/10 23:37:30;;;;;;;6.10;3.83;;;;;;;14.23;53.40;99569.19;232822;1174;115967;-69
2021/05/10 23:42:32;;;;;;;5.80;4.10;;;;;;;14.15;53.52;99573.17;233476;1174;115832;-69
2021/05/10 23:47:37;;;;;;;4.63;3.68;;;;;;;14.09;54.21;99568.84;234490;1174;116830;-69
2021/05/10 23:52:41;;;;;;;6.28;3.90;;;;;;;14.07;54.22;99557.58;234075;1174;115642;-69
2021/05/10 23:57:43;;;;;;;3.45;3.23;;;;;;;14.04;54.11;99556.26;234627;1174;115631;-69
